sensor_id;sensor_type;location;lat;lon;timestamp;P1;durP1;ratioP1;P2;durP2;ratioP2
23684;SDS011;12020;51.384;6.908;2023-03-01T00:01:15;11.98;;;10.73;;
23684;SDS011;12020;51.384;6.908;2023-03-01T00:06:20;10.73;;;8.93;;
23684;SDS011;12020;51.384;6.908;2023-03-01T00:08:48;10.63;;;9.13;;
23684;SDS011;12020;51.384;6.908;2023-03-01T00:11:18;11.27;;;8.80;;
23684;SDS011;12020;51.384;6.908;2023-03-01T00:13:49;13.03;;;9.23;;
23684;SDS011;12020;51.384;6.908;2023-03-01T00:16:18;11.13;;;8.30;;
23684;SDS011;12020;51.384;6.908;2023-03-01T00:18:46;10.07;;;8.67;;
23684;SDS011;12020;51.384;6.908;2023-03-01T00:21:12;10.45;;;9.35;;
23684;SDS011;12020;51.384;6.908;2023-03-01T00:23:38;10.87;;;9.60;;
23684;SDS011;12020;51.384;6.908;2023-03-01T00:26:06;10.45;;;9.30;;
23684;SDS011;12020;51.384;6.908;2023-03-01T00:28:42;11.57;;;10.27;;
23684;SDS011;12020;51.384;6.908;2023-03-01T00:31:11;12.07;;;10.88;;
23684;SDS011;12020;51.384;6.908;2023-03-01T00:33:41;11.18;;;10.18;;
23684;SDS011;12020;51.384;6.908;2023-03-01T00:36:09;11.70;;;10.50;;
23684;SDS011;12020;51.384;6.908;2023-03-01T00:38:37;10.50;;;9.32;;
23684;SDS011;12020;51.384;6.908;2023-03-01T00:41:14;12.27;;;10.48;;
23684;SDS011;12020;51.384;6.908;2023-03-01T00:46:14;11.03;;;9.20;;
23684;SDS011;12020;51.384;6.908;2023-03-01T00:48:41;13.63;;;8.47;;
23684;SDS011;12020;51.384;6.908;2023-03-01T00:51:10;11.77;;;8.47;;
23684;SDS011;12020;51.384;6.908;2023-03-01T00:53:41;9.03;;;8.13;;
23684;SDS011;12020;51.384;6.908;2023-03-01T00:56:11;9.97;;;8.57;;
23684;SDS011;12020;51.384;6.908;2023-03-01T00:58:40;10.97;;;7.90;;
23684;SDS011;12020;51.384;6.908;2023-03-01T01:03:46;10.40;;;8.70;;
23684;SDS011;12020;51.384;6.908;2023-03-01T01:06:23;10.43;;;8.53;;
23684;SDS011;12020;51.384;6.908;2023-03-01T01:08:52;11.97;;;8.67;;
23684;SDS011;12020;51.384;6.908;2023-03-01T01:11:21;11.43;;;8.77;;
23684;SDS011;12020;51.384;6.908;2023-03-01T01:13:51;11.60;;;9.13;;
23684;SDS011;12020;51.384;6.908;2023-03-01T01:16:18;11.90;;;8.50;;
23684;SDS011;12020;51.384;6.908;2023-03-01T01:18:47;11.63;;;8.87;;
23684;SDS011;12020;51.384;6.908;2023-03-01T01:21:16;11.07;;;8.17;;
23684;SDS011;12020;51.384;6.908;2023-03-01T01:23:45;10.93;;;8.70;;
23684;SDS011;12020;51.384;6.908;2023-03-01T01:26:16;9.93;;;8.27;;
23684;SDS011;12020;51.384;6.908;2023-03-01T01:28:42;10.63;;;8.60;;
23684;SDS011;12020;51.384;6.908;2023-03-01T01:31:11;10.70;;;8.10;;
23684;SDS011;12020;51.384;6.908;2023-03-01T01:33:37;9.93;;;8.13;;
23684;SDS011;12020;51.384;6.908;2023-03-01T01:36:09;10.20;;;8.13;;
23684;SDS011;12020;51.384;6.908;2023-03-01T01:38:37;11.77;;;8.50;;
23684;SDS011;12020;51.384;6.908;2023-03-01T01:41:10;10.10;;;8.43;;
23684;SDS011;12020;51.384;6.908;2023-03-01T01:43:47;15.37;;;9.43;;
23684;SDS011;12020;51.384;6.908;2023-03-01T01:46:32;12.50;;;9.20;;
23684;SDS011;12020;51.384;6.908;2023-03-01T01:49:05;13.00;;;8.33;;
23684;SDS011;12020;51.384;6.908;2023-03-01T01:51:42;12.57;;;8.77;;
23684;SDS011;12020;51.384;6.908;2023-03-01T01:54:18;12.00;;;9.10;;
23684;SDS011;12020;51.384;6.908;2023-03-01T01:56:57;10.13;;;8.60;;
23684;SDS011;12020;51.384;6.908;2023-03-01T01:59:28;11.77;;;8.80;;
23684;SDS011;12020;51.384;6.908;2023-03-01T02:01:56;10.77;;;8.43;;
23684;SDS011;12020;51.384;6.908;2023-03-01T02:04:25;13.70;;;8.23;;
23684;SDS011;12020;51.384;6.908;2023-03-01T02:06:54;10.70;;;9.03;;
23684;SDS011;12020;51.384;6.908;2023-03-01T02:09:31;10.73;;;8.90;;
23684;SDS011;12020;51.384;6.908;2023-03-01T02:11:58;11.83;;;8.43;;
23684;SDS011;12020;51.384;6.908;2023-03-01T02:14:25;12.47;;;8.93;;
23684;SDS011;12020;51.384;6.908;2023-03-01T02:19:39;10.80;;;8.63;;
23684;SDS011;12020;51.384;6.908;2023-03-01T02:22:17;11.23;;;8.63;;
23684;SDS011;12020;51.384;6.908;2023-03-01T02:30:23;12.37;;;9.10;;
23684;SDS011;12020;51.384;6.908;2023-03-01T02:32:51;10.47;;;8.60;;
23684;SDS011;12020;51.384;6.908;2023-03-01T02:35:18;11.93;;;9.13;;
23684;SDS011;12020;51.384;6.908;2023-03-01T02:37:46;12.63;;;9.57;;
23684;SDS011;12020;51.384;6.908;2023-03-01T02:40:16;10.97;;;9.23;;
23684;SDS011;12020;51.384;6.908;2023-03-01T02:42:53;10.27;;;9.17;;
23684;SDS011;12020;51.384;6.908;2023-03-01T02:45:21;15.00;;;9.90;;
23684;SDS011;12020;51.384;6.908;2023-03-01T02:47:48;11.27;;;9.77;;
23684;SDS011;12020;51.384;6.908;2023-03-01T02:53:05;11.40;;;9.30;;
23684;SDS011;12020;51.384;6.908;2023-03-01T02:55:44;14.67;;;9.47;;
23684;SDS011;12020;51.384;6.908;2023-03-01T02:58:12;13.27;;;9.67;;
23684;SDS011;12020;51.384;6.908;2023-03-01T03:00:39;11.00;;;9.23;;
23684;SDS011;12020;51.384;6.908;2023-03-01T03:03:13;14.03;;;10.27;;
23684;SDS011;12020;51.384;6.908;2023-03-01T03:05:42;13.63;;;9.50;;
23684;SDS011;12020;51.384;6.908;2023-03-01T03:08:07;13.13;;;9.93;;
23684;SDS011;12020;51.384;6.908;2023-03-01T03:10:35;11.77;;;9.23;;
23684;SDS011;12020;51.384;6.908;2023-03-01T03:13:05;12.97;;;9.90;;
23684;SDS011;12020;51.384;6.908;2023-03-01T03:15:34;11.93;;;9.17;;
23684;SDS011;12020;51.384;6.908;2023-03-01T03:18:11;12.23;;;9.73;;
23684;SDS011;12020;51.384;6.908;2023-03-01T03:20:40;10.57;;;9.10;;
23684;SDS011;12020;51.384;6.908;2023-03-01T03:23:07;12.00;;;10.17;;
23684;SDS011;12020;51.384;6.908;2023-03-01T03:25:34;11.67;;;9.10;;
23684;SDS011;12020;51.384;6.908;2023-03-01T03:28:03;13.30;;;9.57;;
23684;SDS011;12020;51.384;6.908;2023-03-01T03:30:36;12.60;;;10.20;;
23684;SDS011;12020;51.384;6.908;2023-03-01T03:33:08;14.17;;;9.73;;
23684;SDS011;12020;51.384;6.908;2023-03-01T03:35:47;14.73;;;9.37;;
23684;SDS011;12020;51.384;6.908;2023-03-01T03:38:16;11.10;;;9.90;;
23684;SDS011;12020;51.384;6.908;2023-03-01T03:40:49;13.70;;;10.17;;
23684;SDS011;12020;51.384;6.908;2023-03-01T03:43:20;10.93;;;9.27;;
23684;SDS011;12020;51.384;6.908;2023-03-01T03:45:50;11.17;;;9.10;;
23684;SDS011;12020;51.384;6.908;2023-03-01T03:48:17;13.63;;;9.73;;
23684;SDS011;12020;51.384;6.908;2023-03-01T03:50:48;14.93;;;10.40;;
23684;SDS011;12020;51.384;6.908;2023-03-01T03:53:26;13.33;;;10.23;;
23684;SDS011;12020;51.384;6.908;2023-03-01T03:55:55;11.53;;;9.37;;
23684;SDS011;12020;51.384;6.908;2023-03-01T03:58:23;12.10;;;9.87;;
23684;SDS011;12020;51.384;6.908;2023-03-01T04:00:53;12.93;;;9.80;;
23684;SDS011;12020;51.384;6.908;2023-03-01T04:03:22;13.67;;;10.33;;
23684;SDS011;12020;51.384;6.908;2023-03-01T04:05:51;11.37;;;9.27;;
23684;SDS011;12020;51.384;6.908;2023-03-01T04:08:18;16.23;;;9.80;;
23684;SDS011;12020;51.384;6.908;2023-03-01T04:10:47;13.80;;;10.37;;
23684;SDS011;12020;51.384;6.908;2023-03-01T04:13:16;11.50;;;9.30;;
23684;SDS011;12020;51.384;6.908;2023-03-01T04:15:46;13.80;;;10.27;;
23684;SDS011;12020;51.384;6.908;2023-03-01T04:18:17;13.07;;;10.33;;
23684;SDS011;12020;51.384;6.908;2023-03-01T04:20:45;14.33;;;10.20;;
23684;SDS011;12020;51.384;6.908;2023-03-01T04:23:14;13.50;;;10.63;;
23684;SDS011;12020;51.384;6.908;2023-03-01T04:25:54;13.77;;;10.87;;
23684;SDS011;12020;51.384;6.908;2023-03-01T04:30:53;14.37;;;10.70;;
23684;SDS011;12020;51.384;6.908;2023-03-01T04:33:20;13.67;;;10.30;;
23684;SDS011;12020;51.384;6.908;2023-03-01T04:35:49;13.03;;;10.23;;
23684;SDS011;12020;51.384;6.908;2023-03-01T04:38:15;14.20;;;10.40;;
23684;SDS011;12020;51.384;6.908;2023-03-01T04:40:42;15.07;;;10.70;;
23684;SDS011;12020;51.384;6.908;2023-03-01T04:43:12;12.30;;;10.10;;
23684;SDS011;12020;51.384;6.908;2023-03-01T04:45:39;13.00;;;9.80;;
23684;SDS011;12020;51.384;6.908;2023-03-01T04:48:11;12.40;;;9.47;;
23684;SDS011;12020;51.384;6.908;2023-03-01T04:50:37;13.97;;;10.10;;
23684;SDS011;12020;51.384;6.908;2023-03-01T04:53:08;15.00;;;10.33;;
23684;SDS011;12020;51.384;6.908;2023-03-01T04:55:33;13.77;;;10.30;;
23684;SDS011;12020;51.384;6.908;2023-03-01T04:57:59;12.90;;;9.40;;
23684;SDS011;12020;51.384;6.908;2023-03-01T05:00:25;11.03;;;9.87;;
23684;SDS011;12020;51.384;6.908;2023-03-01T05:02:59;12.23;;;9.73;;
23684;SDS011;12020;51.384;6.908;2023-03-01T05:05:27;12.87;;;10.70;;
23684;SDS011;12020;51.384;6.908;2023-03-01T05:07:55;15.20;;;10.10;;
23684;SDS011;12020;51.384;6.908;2023-03-01T05:12:57;14.50;;;10.60;;
23684;SDS011;12020;51.384;6.908;2023-03-01T05:15:24;14.30;;;10.30;;
23684;SDS011;12020;51.384;6.908;2023-03-01T05:17:55;13.57;;;11.00;;
23684;SDS011;12020;51.384;6.908;2023-03-01T05:20:27;12.60;;;9.93;;
23684;SDS011;12020;51.384;6.908;2023-03-01T05:22:57;15.17;;;11.33;;
23684;SDS011;12020;51.384;6.908;2023-03-01T05:25:25;15.70;;;10.70;;
23684;SDS011;12020;51.384;6.908;2023-03-01T05:27:54;12.80;;;10.17;;
23684;SDS011;12020;51.384;6.908;2023-03-01T05:30:21;13.73;;;9.60;;
23684;SDS011;12020;51.384;6.908;2023-03-01T05:32:49;15.47;;;11.20;;
23684;SDS011;12020;51.384;6.908;2023-03-01T05:35:26;15.93;;;11.07;;
23684;SDS011;12020;51.384;6.908;2023-03-01T05:37:54;15.33;;;11.47;;
23684;SDS011;12020;51.384;6.908;2023-03-01T05:40:21;13.83;;;11.27;;
23684;SDS011;12020;51.384;6.908;2023-03-01T05:42:50;13.20;;;10.73;;
23684;SDS011;12020;51.384;6.908;2023-03-01T05:45:21;14.13;;;10.67;;
23684;SDS011;12020;51.384;6.908;2023-03-01T05:47:49;14.73;;;11.03;;
23684;SDS011;12020;51.384;6.908;2023-03-01T05:50:25;13.20;;;10.53;;
23684;SDS011;12020;51.384;6.908;2023-03-01T05:52:57;13.90;;;10.10;;
23684;SDS011;12020;51.384;6.908;2023-03-01T05:55:24;12.70;;;10.30;;
23684;SDS011;12020;51.384;6.908;2023-03-01T05:57:51;16.33;;;11.37;;
23684;SDS011;12020;51.384;6.908;2023-03-01T06:00:18;15.37;;;10.37;;
23684;SDS011;12020;51.384;6.908;2023-03-01T06:02:47;13.10;;;10.83;;
23684;SDS011;12020;51.384;6.908;2023-03-01T06:05:13;12.77;;;10.40;;
23684;SDS011;12020;51.384;6.908;2023-03-01T06:07:39;15.70;;;12.00;;
23684;SDS011;12020;51.384;6.908;2023-03-01T06:10:06;15.17;;;10.83;;
23684;SDS011;12020;51.384;6.908;2023-03-01T06:12:34;17.33;;;11.67;;
23684;SDS011;12020;51.384;6.908;2023-03-01T06:15:00;17.03;;;11.77;;
23684;SDS011;12020;51.384;6.908;2023-03-01T06:17:29;15.00;;;11.37;;
23684;SDS011;12020;51.384;6.908;2023-03-01T06:19:55;12.60;;;11.30;;
23684;SDS011;12020;51.384;6.908;2023-03-01T06:22:21;15.30;;;10.83;;
23684;SDS011;12020;51.384;6.908;2023-03-01T06:24:47;15.40;;;11.83;;
23684;SDS011;12020;51.384;6.908;2023-03-01T06:27:12;16.03;;;11.23;;
23684;SDS011;12020;51.384;6.908;2023-03-01T06:29:38;16.40;;;10.70;;
23684;SDS011;12020;51.384;6.908;2023-03-01T06:32:03;13.63;;;10.50;;
23684;SDS011;12020;51.384;6.908;2023-03-01T06:34:29;15.70;;;11.57;;
23684;SDS011;12020;51.384;6.908;2023-03-01T06:36:55;14.87;;;11.43;;
23684;SDS011;12020;51.384;6.908;2023-03-01T06:39:21;14.43;;;11.30;;
23684;SDS011;12020;51.384;6.908;2023-03-01T06:41:46;14.67;;;11.10;;
23684;SDS011;12020;51.384;6.908;2023-03-01T06:44:12;15.07;;;10.67;;
23684;SDS011;12020;51.384;6.908;2023-03-01T06:46:38;13.37;;;10.73;;
23684;SDS011;12020;51.384;6.908;2023-03-01T06:49:05;14.67;;;11.10;;
23684;SDS011;12020;51.384;6.908;2023-03-01T06:51:34;15.90;;;12.17;;
23684;SDS011;12020;51.384;6.908;2023-03-01T06:54:01;18.40;;;11.70;;
23684;SDS011;12020;51.384;6.908;2023-03-01T06:56:27;14.27;;;11.00;;
23684;SDS011;12020;51.384;6.908;2023-03-01T06:58:53;14.27;;;11.03;;
23684;SDS011;12020;51.384;6.908;2023-03-01T07:01:19;15.37;;;12.27;;
23684;SDS011;12020;51.384;6.908;2023-03-01T07:03:44;16.03;;;12.70;;
23684;SDS011;12020;51.384;6.908;2023-03-01T07:06:10;16.13;;;11.43;;
23684;SDS011;12020;51.384;6.908;2023-03-01T07:08:35;16.47;;;12.63;;
23684;SDS011;12020;51.384;6.908;2023-03-01T07:11:01;16.30;;;12.13;;
23684;SDS011;12020;51.384;6.908;2023-03-01T07:13:28;15.17;;;11.83;;
23684;SDS011;12020;51.384;6.908;2023-03-01T07:15:54;17.33;;;12.80;;
23684;SDS011;12020;51.384;6.908;2023-03-01T07:18:19;15.70;;;12.53;;
23684;SDS011;12020;51.384;6.908;2023-03-01T07:20:45;15.83;;;11.77;;
23684;SDS011;12020;51.384;6.908;2023-03-01T07:23:11;17.13;;;12.57;;
23684;SDS011;12020;51.384;6.908;2023-03-01T07:25:36;15.23;;;12.57;;
23684;SDS011;12020;51.384;6.908;2023-03-01T07:28:03;21.03;;;12.50;;
23684;SDS011;12020;51.384;6.908;2023-03-01T07:30:29;16.87;;;12.17;;
23684;SDS011;12020;51.384;6.908;2023-03-01T07:32:55;18.47;;;12.63;;
23684;SDS011;12020;51.384;6.908;2023-03-01T07:35:23;16.57;;;12.20;;
23684;SDS011;12020;51.384;6.908;2023-03-01T07:37:50;17.17;;;12.77;;
23684;SDS011;12020;51.384;6.908;2023-03-01T07:40:16;16.10;;;12.07;;
23684;SDS011;12020;51.384;6.908;2023-03-01T07:42:42;16.40;;;12.17;;
23684;SDS011;12020;51.384;6.908;2023-03-01T07:45:07;16.63;;;12.63;;
23684;SDS011;12020;51.384;6.908;2023-03-01T07:47:34;17.90;;;12.30;;
23684;SDS011;12020;51.384;6.908;2023-03-01T07:50:00;15.77;;;12.50;;
23684;SDS011;12020;51.384;6.908;2023-03-01T07:52:27;19.47;;;12.80;;
23684;SDS011;12020;51.384;6.908;2023-03-01T07:54:53;17.67;;;12.50;;
23684;SDS011;12020;51.384;6.908;2023-03-01T07:57:19;17.03;;;13.03;;
23684;SDS011;12020;51.384;6.908;2023-03-01T07:59:44;16.70;;;12.77;;
23684;SDS011;12020;51.384;6.908;2023-03-01T08:02:10;17.40;;;15.57;;
23684;SDS011;12020;51.384;6.908;2023-03-01T08:04:36;19.08;;;15.77;;
23684;SDS011;12020;51.384;6.908;2023-03-01T08:07:04;17.75;;;15.85;;
23684;SDS011;12020;51.384;6.908;2023-03-01T08:09:30;16.27;;;14.57;;
23684;SDS011;12020;51.384;6.908;2023-03-01T08:11:56;15.05;;;13.45;;
23684;SDS011;12020;51.384;6.908;2023-03-01T08:14:24;15.02;;;13.35;;
23684;SDS011;12020;51.384;6.908;2023-03-01T08:16:50;14.85;;;13.27;;
23684;SDS011;12020;51.384;6.908;2023-03-01T08:19:16;14.30;;;12.80;;
23684;SDS011;12020;51.384;6.908;2023-03-01T08:21:41;14.07;;;12.60;;
23684;SDS011;12020;51.384;6.908;2023-03-01T08:24:07;14.10;;;12.70;;
23684;SDS011;12020;51.384;6.908;2023-03-01T09:45:05;11.57;;;8.23;;
23684;SDS011;12020;51.384;6.908;2023-03-01T09:47:36;9.70;;;8.30;;
23684;SDS011;12020;51.384;6.908;2023-03-01T14:10:41;8.30;;;7.40;;
23684;SDS011;12020;51.384;6.908;2023-03-01T14:13:28;7.23;;;6.43;;
23684;SDS011;12020;51.384;6.908;2023-03-01T14:16:05;8.97;;;6.90;;
23684;SDS011;12020;51.384;6.908;2023-03-01T14:19:29;9.23;;;6.63;;
23684;SDS011;12020;51.384;6.908;2023-03-01T14:21:45;8.23;;;6.77;;
23684;SDS011;12020;51.384;6.908;2023-03-01T14:24:20;8.80;;;6.90;;
23684;SDS011;12020;51.384;6.908;2023-03-01T14:26:48;8.97;;;6.73;;
23684;SDS011;12020;51.384;6.908;2023-03-01T14:29:25;10.53;;;7.33;;
23684;SDS011;12020;51.384;6.908;2023-03-01T14:32:08;6.97;;;6.17;;
23684;SDS011;12020;51.384;6.908;2023-03-01T14:34:44;8.73;;;6.70;;
23684;SDS011;12020;51.384;6.908;2023-03-01T14:37:25;9.13;;;6.77;;
23684;SDS011;12020;51.384;6.908;2023-03-01T14:39:54;7.80;;;6.20;;
23684;SDS011;12020;51.384;6.908;2023-03-01T14:42:22;10.20;;;6.70;;
23684;SDS011;12020;51.384;6.908;2023-03-01T14:44:53;10.50;;;7.33;;
23684;SDS011;12020;51.384;6.908;2023-03-01T14:47:25;8.50;;;7.13;;
23684;SDS011;12020;51.384;6.908;2023-03-01T14:49:57;9.13;;;6.67;;
23684;SDS011;12020;51.384;6.908;2023-03-01T14:52:30;9.63;;;7.43;;
23684;SDS011;12020;51.384;6.908;2023-03-01T14:55:21;11.33;;;7.77;;
23684;SDS011;12020;51.384;6.908;2023-03-01T14:57:51;10.37;;;7.40;;
23684;SDS011;12020;51.384;6.908;2023-03-01T15:00:18;10.03;;;7.27;;
23684;SDS011;12020;51.384;6.908;2023-03-01T15:02:47;9.20;;;7.10;;
23684;SDS011;12020;51.384;6.908;2023-03-01T15:05:15;8.33;;;6.83;;
23684;SDS011;12020;51.384;6.908;2023-03-01T15:07:50;8.67;;;7.50;;
23684;SDS011;12020;51.384;6.908;2023-03-01T15:10:19;9.00;;;6.93;;
23684;SDS011;12020;51.384;6.908;2023-03-01T15:12:48;11.97;;;7.40;;
23684;SDS011;12020;51.384;6.908;2023-03-01T15:15:21;9.20;;;6.90;;
23684;SDS011;12020;51.384;6.908;2023-03-01T15:18:00;9.10;;;6.90;;
23684;SDS011;12020;51.384;6.908;2023-03-01T15:20:28;9.50;;;7.00;;
23684;SDS011;12020;51.384;6.908;2023-03-01T15:23:02;9.90;;;6.90;;
23684;SDS011;12020;51.384;6.908;2023-03-01T15:25:30;9.87;;;7.20;;
23684;SDS011;12020;51.384;6.908;2023-03-01T15:27:58;9.93;;;7.00;;
23684;SDS011;12020;51.384;6.908;2023-03-01T15:30:33;9.47;;;6.80;;
23684;SDS011;12020;51.384;6.908;2023-03-01T15:35:53;8.33;;;6.90;;
23684;SDS011;12020;51.384;6.908;2023-03-01T15:38:49;9.13;;;7.10;;
23684;SDS011;12020;51.384;6.908;2023-03-01T15:41:30;10.60;;;7.40;;
23684;SDS011;12020;51.384;6.908;2023-03-01T15:43:59;11.00;;;7.20;;
23684;SDS011;12020;51.384;6.908;2023-03-01T15:46:45;9.70;;;7.77;;
23684;SDS011;12020;51.384;6.908;2023-03-01T15:49:23;8.63;;;7.23;;
23684;SDS011;12020;51.384;6.908;2023-03-01T15:52:05;12.37;;;7.40;;
23684;SDS011;12020;51.384;6.908;2023-03-01T15:54:39;9.30;;;6.70;;
23684;SDS011;12020;51.384;6.908;2023-03-01T15:57:09;9.43;;;7.10;;
23684;SDS011;12020;51.384;6.908;2023-03-01T15:59:40;9.37;;;7.10;;
23684;SDS011;12020;51.384;6.908;2023-03-01T16:02:10;8.53;;;7.40;;
23684;SDS011;12020;51.384;6.908;2023-03-01T16:04:37;10.37;;;7.23;;
23684;SDS011;12020;51.384;6.908;2023-03-01T16:07:04;9.20;;;7.40;;
23684;SDS011;12020;51.384;6.908;2023-03-01T16:09:31;9.03;;;7.30;;
23684;SDS011;12020;51.384;6.908;2023-03-01T16:11:57;9.43;;;7.03;;
23684;SDS011;12020;51.384;6.908;2023-03-01T16:14:22;8.93;;;6.70;;
23684;SDS011;12020;51.384;6.908;2023-03-01T16:16:48;8.80;;;7.13;;
23684;SDS011;12020;51.384;6.908;2023-03-01T16:19:14;8.10;;;6.10;;
23684;SDS011;12020;51.384;6.908;2023-03-01T16:21:40;7.93;;;6.27;;
23684;SDS011;12020;51.384;6.908;2023-03-01T16:24:07;9.43;;;6.80;;
23684;SDS011;12020;51.384;6.908;2023-03-01T16:26:34;8.50;;;6.60;;
23684;SDS011;12020;51.384;6.908;2023-03-01T16:29:01;9.60;;;7.17;;
23684;SDS011;12020;51.384;6.908;2023-03-01T16:31:27;8.93;;;6.50;;
23684;SDS011;12020;51.384;6.908;2023-03-01T16:33:54;10.23;;;7.13;;
23684;SDS011;12020;51.384;6.908;2023-03-01T16:36:20;8.67;;;7.70;;
23684;SDS011;12020;51.384;6.908;2023-03-01T16:38:52;12.10;;;7.00;;
23684;SDS011;12020;51.384;6.908;2023-03-01T16:41:20;8.77;;;7.13;;
23684;SDS011;12020;51.384;6.908;2023-03-01T16:43:47;10.23;;;7.37;;
23684;SDS011;12020;51.384;6.908;2023-03-01T16:46:14;11.20;;;6.93;;
23684;SDS011;12020;51.384;6.908;2023-03-01T16:48:41;9.43;;;6.53;;
23684;SDS011;12020;51.384;6.908;2023-03-01T16:51:07;9.67;;;6.93;;
23684;SDS011;12020;51.384;6.908;2023-03-01T16:53:34;8.73;;;7.00;;
23684;SDS011;12020;51.384;6.908;2023-03-01T16:56:05;8.97;;;6.60;;
23684;SDS011;12020;51.384;6.908;2023-03-01T16:58:34;9.90;;;6.43;;
23684;SDS011;12020;51.384;6.908;2023-03-01T17:01:03;8.73;;;7.00;;
23684;SDS011;12020;51.384;6.908;2023-03-01T17:03:30;8.73;;;6.63;;
23684;SDS011;12020;51.384;6.908;2023-03-01T17:05:56;11.07;;;6.43;;
23684;SDS011;12020;51.384;6.908;2023-03-01T17:08:21;8.37;;;5.77;;
23684;SDS011;12020;51.384;6.908;2023-03-01T17:10:47;10.53;;;5.67;;
23684;SDS011;12020;51.384;6.908;2023-03-01T17:13:13;7.50;;;5.93;;
23684;SDS011;12020;51.384;6.908;2023-03-01T17:15:39;6.63;;;5.10;;
23684;SDS011;12020;51.384;6.908;2023-03-01T17:18:06;7.47;;;5.60;;
23684;SDS011;12020;51.384;6.908;2023-03-01T17:20:32;7.97;;;5.23;;
23684;SDS011;12020;51.384;6.908;2023-03-01T17:22:58;6.87;;;5.00;;
23684;SDS011;12020;51.384;6.908;2023-03-01T17:25:23;7.90;;;5.40;;
23684;SDS011;12020;51.384;6.908;2023-03-01T17:27:49;7.70;;;5.50;;
23684;SDS011;12020;51.384;6.908;2023-03-01T17:30:15;7.27;;;5.03;;
23684;SDS011;12020;51.384;6.908;2023-03-01T17:32:41;6.63;;;5.00;;
23684;SDS011;12020;51.384;6.908;2023-03-01T17:35:07;8.23;;;5.60;;
23684;SDS011;12020;51.384;6.908;2023-03-01T17:37:35;7.30;;;5.27;;
23684;SDS011;12020;51.384;6.908;2023-03-01T17:40:03;7.37;;;5.47;;
23684;SDS011;12020;51.384;6.908;2023-03-01T17:42:29;6.00;;;4.90;;
23684;SDS011;12020;51.384;6.908;2023-03-01T17:47:26;6.53;;;5.13;;
23684;SDS011;12020;51.384;6.908;2023-03-01T17:49:53;7.40;;;4.73;;
23684;SDS011;12020;51.384;6.908;2023-03-01T17:52:20;6.37;;;5.17;;
23684;SDS011;12020;51.384;6.908;2023-03-01T17:54:50;6.47;;;5.10;;
23684;SDS011;12020;51.384;6.908;2023-03-01T17:57:16;8.27;;;4.93;;
23684;SDS011;12020;51.384;6.908;2023-03-01T17:59:42;7.17;;;5.37;;
23684;SDS011;12020;51.384;6.908;2023-03-01T18:02:09;7.67;;;4.90;;
23684;SDS011;12020;51.384;6.908;2023-03-01T18:04:40;5.87;;;4.80;;
23684;SDS011;12020;51.384;6.908;2023-03-01T18:09:37;9.33;;;6.43;;
23684;SDS011;12020;51.384;6.908;2023-03-01T18:12:03;6.83;;;5.70;;
23684;SDS011;12020;51.384;6.908;2023-03-01T18:14:30;9.43;;;6.30;;
23684;SDS011;12020;51.384;6.908;2023-03-01T18:22:09;10.57;;;7.20;;
23684;SDS011;12020;51.384;6.908;2023-03-01T18:24:35;10.30;;;6.87;;
23684;SDS011;12020;51.384;6.908;2023-03-01T18:27:04;9.37;;;6.83;;
23684;SDS011;12020;51.384;6.908;2023-03-01T18:29:30;8.97;;;7.00;;
23684;SDS011;12020;51.384;6.908;2023-03-01T18:32:02;9.23;;;7.47;;
23684;SDS011;12020;51.384;6.908;2023-03-01T18:34:29;11.13;;;7.13;;
23684;SDS011;12020;51.384;6.908;2023-03-01T18:36:54;10.30;;;7.27;;
23684;SDS011;12020;51.384;6.908;2023-03-01T18:39:20;9.13;;;7.00;;
23684;SDS011;12020;51.384;6.908;2023-03-01T18:41:47;12.20;;;7.57;;
23684;SDS011;12020;51.384;6.908;2023-03-01T18:51:31;12.20;;;7.33;;
23684;SDS011;12020;51.384;6.908;2023-03-01T18:53:59;11.83;;;7.53;;
23684;SDS011;12020;51.384;6.908;2023-03-01T18:56:25;10.50;;;7.30;;
23684;SDS011;12020;51.384;6.908;2023-03-01T18:58:53;9.37;;;6.77;;
23684;SDS011;12020;51.384;6.908;2023-03-01T19:01:21;10.17;;;7.70;;
23684;SDS011;12020;51.384;6.908;2023-03-01T19:03:52;10.90;;;7.63;;
23684;SDS011;12020;51.384;6.908;2023-03-01T19:06:19;11.13;;;7.57;;
23684;SDS011;12020;51.384;6.908;2023-03-01T19:08:45;8.73;;;7.03;;
23684;SDS011;12020;51.384;6.908;2023-03-01T19:13:42;8.87;;;7.10;;
23684;SDS011;12020;51.384;6.908;2023-03-01T19:16:11;11.00;;;6.93;;
23684;SDS011;12020;51.384;6.908;2023-03-01T19:18:46;8.63;;;6.33;;
23684;SDS011;12020;51.384;6.908;2023-03-01T19:21:20;8.43;;;6.07;;
23684;SDS011;12020;51.384;6.908;2023-03-01T19:23:51;7.93;;;5.80;;
23684;SDS011;12020;51.384;6.908;2023-03-01T19:26:22;7.37;;;5.90;;
23684;SDS011;12020;51.384;6.908;2023-03-01T19:28:49;7.83;;;6.13;;
23684;SDS011;12020;51.384;6.908;2023-03-01T19:31:17;7.97;;;6.00;;
23684;SDS011;12020;51.384;6.908;2023-03-01T19:33:46;8.93;;;6.93;;
23684;SDS011;12020;51.384;6.908;2023-03-01T19:36:12;8.50;;;7.25;;
23684;SDS011;12020;51.384;6.908;2023-03-01T19:38:39;10.18;;;7.47;;
23684;SDS011;12020;51.384;6.908;2023-03-01T19:41:06;10.38;;;8.20;;
23684;SDS011;12020;51.384;6.908;2023-03-01T19:43:34;9.05;;;7.80;;
23684;SDS011;12020;51.384;6.908;2023-03-01T19:48:31;10.07;;;8.13;;
23684;SDS011;12020;51.384;6.908;2023-03-01T19:50:57;9.63;;;8.18;;
23684;SDS011;12020;51.384;6.908;2023-03-01T19:55:56;11.40;;;8.07;;
23684;SDS011;12020;51.384;6.908;2023-03-01T19:58:24;11.40;;;8.57;;
23684;SDS011;12020;51.384;6.908;2023-03-01T20:00:51;9.55;;;7.88;;
23684;SDS011;12020;51.384;6.908;2023-03-01T20:03:32;8.82;;;7.68;;
23684;SDS011;12020;51.384;6.908;2023-03-01T20:06:04;9.48;;;7.65;;
23684;SDS011;12020;51.384;6.908;2023-03-01T20:08:37;9.63;;;7.63;;
23684;SDS011;12020;51.384;6.908;2023-03-01T20:11:05;10.65;;;7.47;;
23684;SDS011;12020;51.384;6.908;2023-03-01T20:13:33;9.57;;;7.50;;
23684;SDS011;12020;51.384;6.908;2023-03-01T20:15:59;8.52;;;7.10;;
23684;SDS011;12020;51.384;6.908;2023-03-01T20:18:30;10.98;;;7.30;;
23684;SDS011;12020;51.384;6.908;2023-03-01T20:20:57;8.55;;;7.53;;
23684;SDS011;12020;51.384;6.908;2023-03-01T20:23:23;9.90;;;7.50;;
23684;SDS011;12020;51.384;6.908;2023-03-01T20:25:50;10.57;;;7.60;;
23684;SDS011;12020;51.384;6.908;2023-03-01T20:28:16;7.93;;;7.13;;
23684;SDS011;12020;51.384;6.908;2023-03-01T20:30:46;10.80;;;7.35;;
23684;SDS011;12020;51.384;6.908;2023-03-01T20:33:14;8.95;;;7.10;;
23684;SDS011;12020;51.384;6.908;2023-03-01T20:35:44;9.90;;;7.23;;
23684;SDS011;12020;51.384;6.908;2023-03-01T20:38:10;8.25;;;6.95;;
23684;SDS011;12020;51.384;6.908;2023-03-01T20:40:43;8.65;;;6.82;;
23684;SDS011;12020;51.384;6.908;2023-03-01T20:43:12;10.48;;;7.15;;
23684;SDS011;12020;51.384;6.908;2023-03-01T20:45:43;8.70;;;6.80;;
23684;SDS011;12020;51.384;6.908;2023-03-01T20:48:10;9.55;;;7.45;;
23684;SDS011;12020;51.384;6.908;2023-03-01T20:50:38;10.15;;;7.60;;
23684;SDS011;12020;51.384;6.908;2023-03-01T20:53:05;9.02;;;7.05;;
23684;SDS011;12020;51.384;6.908;2023-03-01T20:55:33;8.27;;;7.15;;
23684;SDS011;12020;51.384;6.908;2023-03-01T20:57:59;9.40;;;7.18;;
23684;SDS011;12020;51.384;6.908;2023-03-01T21:00:27;8.27;;;7.07;;
23684;SDS011;12020;51.384;6.908;2023-03-01T21:02:54;8.05;;;7.00;;
23684;SDS011;12020;51.384;6.908;2023-03-01T21:05:21;8.82;;;7.18;;
23684;SDS011;12020;51.384;6.908;2023-03-01T21:07:47;7.88;;;6.80;;
23684;SDS011;12020;51.384;6.908;2023-03-01T21:10:16;9.07;;;7.17;;
23684;SDS011;12020;51.384;6.908;2023-03-01T21:12:43;11.10;;;7.30;;
23684;SDS011;12020;51.384;6.908;2023-03-01T21:15:10;7.72;;;6.93;;
23684;SDS011;12020;51.384;6.908;2023-03-01T21:17:36;8.73;;;6.60;;